Anna II — SW7403 — position and weather

sailwx.info

Track history (hours):
 
Tides and Currents Weather Stations Pressure Air Temp Water Temp Dewpoint Dewpoint Depression Visibility Wind Speed Wind Dir Waves Ship Positions

Anna II

Last reported at 2017-Oct-15 17:39 UTC. Time now 2017-Oct-18 22:34 UTC.
Position N 37°54' E 023°01'.

Length 31 m; draft 2.5 m.

Type: Ship. MMSI: 237019100.

Date/timePositionNaut miles runAvg speedWind from/ knotsBaromVisibWave heightAir tempDewpointWater temp
2017-Oct-15 17:39N 37°54' E 023°01'2 4.5
2017-Oct-15 17:15N 37°54' E 023°03'2 7.1
2017-Oct-15 17:00N 37°55' E 023°05'3 6.9
2017-Oct-15 16:30N 37°56' E 023°09'3 6.6
2017-Oct-15 16:00N 37°58' E 023°13'3 5.0
2017-Oct-15 15:30N 37°56' E 023°10'4 8.4
2017-Oct-15 15:00N 37°55' E 023°05'4 2.9
2017-Oct-15 13:40N 37°55' E 023°00'1 6.5
2017-Oct-15 13:30N 37°55' E 023°02'5 9.8
2017-Oct-15 13:00N 37°55' E 023°08'6 0.1
2017-Oct-13 16:26N 37°54' E 023°01'4 4.7
2017-Oct-13 15:38N 37°57' E 022°58'3 8.4
2017-Oct-13 15:17N 37°55' E 023°00'1 2.5
2017-Oct-13 15:01N 37°55' E 023°01'5 9.5
2017-Oct-13 14:31N 37°52' E 023°06'5 9.6
2017-Oct-13 14:01N 37°49' E 023°11'5 9.6
2017-Oct-13 13:30N 37°46' E 023°16'5 9.6
2017-Oct-13 13:00N 37°44' E 023°21'2 0.8
2017-Oct-13 11:06N 37°42' E 023°22'0 0.1
2017-Oct-13 11:00N 37°42' E 023°22'4 1.2
2017-Oct-13 08:08N 37°45' E 023°26'0 1.4
2017-Oct-13 07:59N 37°45' E 023°25'6 9.5
2017-Oct-13 07:21N 37°47' E 023°18'4 9.5
2017-Oct-13 06:57N 37°48' E 023°14'4 9.6
2017-Oct-13 06:30N 37°51' E 023°09'5 9.7
2017-Oct-13 06:00N 37°53' E 023°04'3 0.2
2017-Oct-12 18:44N 37°54' E 023°01'1 4.2
2017-Oct-12 18:30N 37°54' E 023°02'4 8.0
2017-Oct-12 18:00N 37°55' E 023°07'4 7.6
2017-Oct-12 17:30N 37°57' E 023°11'2 3.1
2017-Oct-12 17:00N 37°58' E 023°13'510.0
2017-Oct-12 16:29N 37°53' E 023°16'5 9.9
2017-Oct-12 16:00N 37°49' E 023°18'5 9.9
2017-Oct-12 15:31N 37°44' E 023°21'2 1.6
2017-Oct-12 14:17N 37°42' E 023°22'2 6.4
2017-Oct-12 14:00N 37°41' E 023°23'8 9.7
2017-Oct-12 13:13N 37°34' E 023°25'2 9.9
2017-Oct-12 13:00N 37°31' E 023°25'2 0.8
2017-Oct-12 10:23N 37°30' E 023°27'3 8.1
2017-Oct-12 10:00N 37°33' E 023°25'510.1
2017-Oct-12 09:30N 37°38' E 023°25'510.1
2017-Oct-12 09:00N 37°43' E 023°25'2 0.9
2017-Oct-12 06:49N 37°45' E 023°26'2 6.9
2017-Oct-12 06:30N 37°46' E 023°24'510.1
2017-Oct-12 05:59N 37°50' E 023°19'510.0
2017-Oct-12 05:30N 37°54' E 023°16'4 8.3
2017-Oct-12 04:58N 37°58' E 023°13'0 0.2
2017-Oct-12 04:30N 37°58' E 023°13'4 7.4
2017-Oct-12 04:00N 37°55' E 023°09'4 7.1
2017-Oct-12 03:30N 37°55' E 023°05'  
2017-Oct-08 17:35N 37°54' E 023°01'0 0.0
2017-Oct-08 17:30N 37°54' E 023°01'3 6.0
2017-Oct-08 17:00N 37°54' E 023°05'4 8.6
2017-Oct-08 16:30N 37°56' E 023°10'3 5.9
2017-Oct-08 16:00N 37°58' E 023°13'3 5.6
2017-Oct-08 15:30N 37°56' E 023°10'4 8.4
2017-Oct-08 15:00N 37°55' E 023°05'6 6.8
2017-Oct-08 14:06N 37°57' E 022°58'3 7.7
2017-Oct-08 13:44N 37°55' E 023°00'1 6.5
2017-Oct-08 13:30N 37°55' E 023°02'5 9.5
2017-Oct-08 13:00N 37°55' E 023°08'4 8.6
2017-Oct-08 12:30N 37°57' E 023°12'0 0.1
2017-Oct-08 09:45N 37°58' E 023°13'1 3.9
2017-Oct-08 09:30N 37°57' E 023°12'3 6.9
2017-Oct-08 09:00N 37°55' E 023°09'5 7.3
2017-Oct-08 08:17N 37°55' E 023°02'1 0.8
2017-Oct-08 06:53N 37°55' E 023°01'1 0.0
2017-Oct-06 16:15N 37°54' E 023°01'1 2.8
2017-Oct-06 16:00N 37°55' E 023°00'0 0.3
2017-Oct-06 15:16N 37°55' E 023°00'1 2.7
2017-Oct-06 15:00N 37°55' E 023°01'5 9.8
2017-Oct-06 14:30N 37°52' E 023°06'5 9.7
2017-Oct-06 14:00N 37°49' E 023°11'5 9.7
2017-Oct-06 13:30N 37°46' E 023°16'5 9.8
2017-Oct-06 13:00N 37°44' E 023°21'1 2.6
2017-Oct-06 12:30N 37°42' E 023°22'0 0.0
2017-Oct-06 12:00N 37°42' E 023°22'0 0.0
2017-Oct-06 11:30N 37°42' E 023°22'0 0.0
2017-Oct-06 11:00N 37°42' E 023°22'4 7.2
2017-Oct-06 10:30N 37°45' E 023°26'0 0.0
2017-Oct-06 10:00N 37°45' E 023°26'0 0.0
2017-Oct-06 09:30N 37°45' E 023°26'0 0.0
2017-Oct-06 08:58N 37°45' E 023°26'0 0.0
2017-Oct-06 08:30N 37°45' E 023°26'4 7.0
2017-Oct-06 08:00N 37°46' E 023°21'510.0
2017-Oct-06 07:29N 37°49' E 023°16'5 9.9
2017-Oct-06 07:00N 37°51' E 023°11'5 9.8
2017-Oct-06 06:30N 37°53' E 023°05'4 0.3
2017-Oct-05 19:16N 37°54' E 023°01'1 3.8
2017-Oct-05 19:00N 37°54' E 023°02'4 7.5
2017-Oct-05 18:30N 37°54' E 023°07'4 7.1
2017-Oct-05 18:00N 37°56' E 023°11'  
Track history (hours):
 
Tides and Currents Weather Stations Pressure Air Temp Water Temp Dewpoint Dewpoint Depression Visibility Wind Speed Wind Dir Waves Ship Positions

Anna II

Last reported at 2017-Oct-15 17:39 UTC. Time now 2017-Oct-18 22:34 UTC.
Position N 37°54' E 023°01'.

Length 31 m; draft 2.5 m.

Type: Ship. MMSI: 237019100.

Date/timePositionNaut miles runAvg speedWind from/ knotsBaromVisibWave heightAir tempDewpointWater temp
2017-Oct-15 17:39N 37°54' E 023°01'2 4.5
2017-Oct-15 17:15N 37°54' E 023°03'2 7.1
2017-Oct-15 17:00N 37°55' E 023°05'3 6.9
2017-Oct-15 16:30N 37°56' E 023°09'3 6.6
2017-Oct-15 16:00N 37°58' E 023°13'3 5.0
2017-Oct-15 15:30N 37°56' E 023°10'4 8.4
2017-Oct-15 15:00N 37°55' E 023°05'4 2.9
2017-Oct-15 13:40N 37°55' E 023°00'1 6.5
2017-Oct-15 13:30N 37°55' E 023°02'5 9.8
2017-Oct-15 13:00N 37°55' E 023°08'6 0.1
2017-Oct-13 16:26N 37°54' E 023°01'4 4.7
2017-Oct-13 15:38N 37°57' E 022°58'3 8.4
2017-Oct-13 15:17N 37°55' E 023°00'1 2.5
2017-Oct-13 15:01N 37°55' E 023°01'5 9.5
2017-Oct-13 14:31N 37°52' E 023°06'5 9.6
2017-Oct-13 14:01N 37°49' E 023°11'5 9.6
2017-Oct-13 13:30N 37°46' E 023°16'5 9.6
2017-Oct-13 13:00N 37°44' E 023°21'2 0.8
2017-Oct-13 11:06N 37°42' E 023°22'0 0.1
2017-Oct-13 11:00N 37°42' E 023°22'4 1.2
2017-Oct-13 08:08N 37°45' E 023°26'0 1.4
2017-Oct-13 07:59N 37°45' E 023°25'6 9.5
2017-Oct-13 07:21N 37°47' E 023°18'4 9.5
2017-Oct-13 06:57N 37°48' E 023°14'4 9.6
2017-Oct-13 06:30N 37°51' E 023°09'5 9.7
2017-Oct-13 06:00N 37°53' E 023°04'3 0.2
2017-Oct-12 18:44N 37°54' E 023°01'1 4.2
2017-Oct-12 18:30N 37°54' E 023°02'4 8.0
2017-Oct-12 18:00N 37°55' E 023°07'4 7.6
2017-Oct-12 17:30N 37°57' E 023°11'2 3.1
2017-Oct-12 17:00N 37°58' E 023°13'510.0
2017-Oct-12 16:29N 37°53' E 023°16'5 9.9
2017-Oct-12 16:00N 37°49' E 023°18'5 9.9
2017-Oct-12 15:31N 37°44' E 023°21'2 1.6
2017-Oct-12 14:17N 37°42' E 023°22'2 6.4
2017-Oct-12 14:00N 37°41' E 023°23'8 9.7
2017-Oct-12 13:13N 37°34' E 023°25'2 9.9
2017-Oct-12 13:00N 37°31' E 023°25'2 0.8
2017-Oct-12 10:23N 37°30' E 023°27'3 8.1
2017-Oct-12 10:00N 37°33' E 023°25'510.1
2017-Oct-12 09:30N 37°38' E 023°25'510.1
2017-Oct-12 09:00N 37°43' E 023°25'2 0.9
2017-Oct-12 06:49N 37°45' E 023°26'2 6.9
2017-Oct-12 06:30N 37°46' E 023°24'510.1
2017-Oct-12 05:59N 37°50' E 023°19'510.0
2017-Oct-12 05:30N 37°54' E 023°16'4 8.3
2017-Oct-12 04:58N 37°58' E 023°13'0 0.2
2017-Oct-12 04:30N 37°58' E 023°13'4 7.4
2017-Oct-12 04:00N 37°55' E 023°09'4 7.1
2017-Oct-12 03:30N 37°55' E 023°05'  
2017-Oct-08 17:35N 37°54' E 023°01'0 0.0
2017-Oct-08 17:30N 37°54' E 023°01'3 6.0
2017-Oct-08 17:00N 37°54' E 023°05'4 8.6
2017-Oct-08 16:30N 37°56' E 023°10'3 5.9
2017-Oct-08 16:00N 37°58' E 023°13'3 5.6
2017-Oct-08 15:30N 37°56' E 023°10'4 8.4
2017-Oct-08 15:00N 37°55' E 023°05'6 6.8
2017-Oct-08 14:06N 37°57' E 022°58'3 7.7
2017-Oct-08 13:44N 37°55' E 023°00'1 6.5
2017-Oct-08 13:30N 37°55' E 023°02'5 9.5
2017-Oct-08 13:00N 37°55' E 023°08'4 8.6
2017-Oct-08 12:30N 37°57' E 023°12'0 0.1
2017-Oct-08 09:45N 37°58' E 023°13'1 3.9
2017-Oct-08 09:30N 37°57' E 023°12'3 6.9
2017-Oct-08 09:00N 37°55' E 023°09'5 7.3
2017-Oct-08 08:17N 37°55' E 023°02'1 0.8
2017-Oct-08 06:53N 37°55' E 023°01'1 0.0
2017-Oct-06 16:15N 37°54' E 023°01'1 2.8
2017-Oct-06 16:00N 37°55' E 023°00'0 0.3
2017-Oct-06 15:16N 37°55' E 023°00'1 2.7
2017-Oct-06 15:00N 37°55' E 023°01'5 9.8
2017-Oct-06 14:30N 37°52' E 023°06'5 9.7
2017-Oct-06 14:00N 37°49' E 023°11'5 9.7
2017-Oct-06 13:30N 37°46' E 023°16'5 9.8
2017-Oct-06 13:00N 37°44' E 023°21'1 2.6
2017-Oct-06 12:30N 37°42' E 023°22'0 0.0
2017-Oct-06 12:00N 37°42' E 023°22'0 0.0
2017-Oct-06 11:30N 37°42' E 023°22'0 0.0
2017-Oct-06 11:00N 37°42' E 023°22'4 7.2
2017-Oct-06 10:30N 37°45' E 023°26'0 0.0
2017-Oct-06 10:00N 37°45' E 023°26'0 0.0
2017-Oct-06 09:30N 37°45' E 023°26'0 0.0
2017-Oct-06 08:58N 37°45' E 023°26'0 0.0
2017-Oct-06 08:30N 37°45' E 023°26'4 7.0
2017-Oct-06 08:00N 37°46' E 023°21'510.0
2017-Oct-06 07:29N 37°49' E 023°16'5 9.9
2017-Oct-06 07:00N 37°51' E 023°11'5 9.8
2017-Oct-06 06:30N 37°53' E 023°05'4 0.3
2017-Oct-05 19:16N 37°54' E 023°01'1 3.8
2017-Oct-05 19:00N 37°54' E 023°02'4 7.5
2017-Oct-05 18:30N 37°54' E 023°07'4 7.1
2017-Oct-05 18:00N 37°56' E 023°11'  

Dump ship's entire track history